sensor_id;sensor_type;location;lat;lon;timestamp;pressure;altitude;pressure_sealevel;temperature;humidity
7376;BME280;3728;42.266;24.944;2023-03-23T00:01:17;99600.34;;;11.18;100.00
7376;BME280;3728;42.266;24.944;2023-03-23T00:03:47;99597.25;;;11.16;100.00
7376;BME280;3728;42.266;24.944;2023-03-23T00:06:15;99603.56;;;11.15;100.00
7376;BME280;3728;42.266;24.944;2023-03-23T00:08:45;99595.91;;;11.27;100.00
7376;BME280;3728;42.266;24.944;2023-03-23T00:11:21;99600.38;;;11.27;100.00
7376;BME280;3728;42.266;24.944;2023-03-23T00:13:50;99596.34;;;11.21;100.00
7376;BME280;3728;42.266;24.944;2023-03-23T00:16:19;99598.53;;;11.27;100.00
7376;BME280;3728;42.266;24.944;2023-03-23T00:18:57;99595.13;;;11.27;100.00
7376;BME280;3728;42.266;24.944;2023-03-23T00:21:29;99598.06;;;11.25;100.00
7376;BME280;3728;42.266;24.944;2023-03-23T00:26:39;99599.19;;;11.33;100.00
7376;BME280;3728;42.266;24.944;2023-03-23T00:29:22;99597.19;;;11.38;100.00
7376;BME280;3728;42.266;24.944;2023-03-23T00:31:49;99595.50;;;11.42;100.00
7376;BME280;3728;42.266;24.944;2023-03-23T00:34:21;99591.03;;;11.43;100.00
7376;BME280;3728;42.266;24.944;2023-03-23T00:36:54;99597.66;;;11.40;100.00
7376;BME280;3728;42.266;24.944;2023-03-23T00:39:26;99600.91;;;11.37;100.00
7376;BME280;3728;42.266;24.944;2023-03-23T00:41:54;99594.09;;;11.36;100.00
7376;BME280;3728;42.266;24.944;2023-03-23T00:44:30;99593.50;;;11.39;100.00
7376;BME280;3728;42.266;24.944;2023-03-23T00:47:00;99591.47;;;11.36;100.00
7376;BME280;3728;42.266;24.944;2023-03-23T00:49:30;99589.31;;;11.38;100.00
7376;BME280;3728;42.266;24.944;2023-03-23T00:52:01;99584.66;;;11.35;100.00
7376;BME280;3728;42.266;24.944;2023-03-23T00:54:28;99581.13;;;11.31;100.00
7376;BME280;3728;42.266;24.944;2023-03-23T00:56:55;99587.91;;;11.32;100.00
7376;BME280;3728;42.266;24.944;2023-03-23T00:59:22;99580.19;;;11.27;100.00
7376;BME280;3728;42.266;24.944;2023-03-23T01:01:50;99583.88;;;11.26;100.00
7376;BME280;3728;42.266;24.944;2023-03-23T01:04:17;99583.41;;;11.24;100.00
7376;BME280;3728;42.266;24.944;2023-03-23T01:06:44;99578.28;;;11.19;100.00
7376;BME280;3728;42.266;24.944;2023-03-23T01:09:15;99579.25;;;11.23;100.00
7376;BME280;3728;42.266;24.944;2023-03-23T01:11:43;99586.03;;;11.24;100.00
7376;BME280;3728;42.266;24.944;2023-03-23T01:14:12;99582.34;;;11.25;100.00
7376;BME280;3728;42.266;24.944;2023-03-23T01:16:41;99574.63;;;11.29;100.00
7376;BME280;3728;42.266;24.944;2023-03-23T01:19:07;99569.22;;;11.25;100.00
7376;BME280;3728;42.266;24.944;2023-03-23T01:21:35;99573.66;;;11.16;100.00
7376;BME280;3728;42.266;24.944;2023-03-23T01:24:02;99581.81;;;11.15;100.00
7376;BME280;3728;42.266;24.944;2023-03-23T01:26:28;99567.66;;;11.24;100.00
7376;BME280;3728;42.266;24.944;2023-03-23T01:28:55;99565.94;;;11.20;100.00
7376;BME280;3728;42.266;24.944;2023-03-23T01:31:24;99570.69;;;11.09;100.00
7376;BME280;3728;42.266;24.944;2023-03-23T01:33:52;99570.19;;;11.07;100.00
7376;BME280;3728;42.266;24.944;2023-03-23T01:36:23;99571.56;;;11.05;100.00
7376;BME280;3728;42.266;24.944;2023-03-23T01:38:56;99566.28;;;10.87;100.00
7376;BME280;3728;42.266;24.944;2023-03-23T01:41:24;99574.22;;;10.74;100.00
7376;BME280;3728;42.266;24.944;2023-03-23T01:46:45;99578.72;;;10.82;100.00
7376;BME280;3728;42.266;24.944;2023-03-23T01:49:15;99574.78;;;10.71;100.00
7376;BME280;3728;42.266;24.944;2023-03-23T01:51:56;99569.09;;;10.69;100.00
7376;BME280;3728;42.266;24.944;2023-03-23T01:54:26;99565.03;;;10.85;100.00
7376;BME280;3728;42.266;24.944;2023-03-23T01:57:13;99574.13;;;10.65;100.00
7376;BME280;3728;42.266;24.944;2023-03-23T01:59:45;99570.09;;;10.59;100.00
7376;BME280;3728;42.266;24.944;2023-03-23T02:02:22;99573.59;;;10.55;100.00
7376;BME280;3728;42.266;24.944;2023-03-23T02:04:51;99575.81;;;10.61;100.00
7376;BME280;3728;42.266;24.944;2023-03-23T02:07:24;99579.69;;;10.64;100.00
7376;BME280;3728;42.266;24.944;2023-03-23T02:09:52;99570.25;;;10.63;100.00
7376;BME280;3728;42.266;24.944;2023-03-23T02:12:19;99570.16;;;10.46;100.00
7376;BME280;3728;42.266;24.944;2023-03-23T02:14:48;99567.72;;;10.49;100.00
7376;BME280;3728;42.266;24.944;2023-03-23T02:17:34;99572.16;;;10.49;100.00
7376;BME280;3728;42.266;24.944;2023-03-23T02:29:03;99576.88;;;10.38;100.00
7376;BME280;3728;42.266;24.944;2023-03-23T02:32:12;99582.13;;;10.24;100.00
7376;BME280;3728;42.266;24.944;2023-03-23T02:34:56;99585.78;;;10.15;100.00
7376;BME280;3728;42.266;24.944;2023-03-23T02:37:36;99585.66;;;10.06;100.00
7376;BME280;3728;42.266;24.944;2023-03-23T02:40:12;99589.22;;;10.10;100.00
7376;BME280;3728;42.266;24.944;2023-03-23T02:42:49;99585.56;;;9.98;100.00
7376;BME280;3728;42.266;24.944;2023-03-23T02:45:20;99595.16;;;10.02;100.00
7376;BME280;3728;42.266;24.944;2023-03-23T02:47:51;99595.09;;;9.94;100.00
7376;BME280;3728;42.266;24.944;2023-03-23T02:50:22;99604.19;;;9.83;100.00
7376;BME280;3728;42.266;24.944;2023-03-23T02:52:50;99595.56;;;9.82;100.00
7376;BME280;3728;42.266;24.944;2023-03-23T02:55:19;99603.69;;;9.94;100.00
7376;BME280;3728;42.266;24.944;2023-03-23T02:57:52;99607.66;;;9.92;100.00
7376;BME280;3728;42.266;24.944;2023-03-23T03:00:19;99613.28;;;9.85;100.00
7376;BME280;3728;42.266;24.944;2023-03-23T03:02:49;99614.25;;;9.89;100.00
7376;BME280;3728;42.266;24.944;2023-03-23T03:11:10;99618.31;;;9.95;100.00
7376;BME280;3728;42.266;24.944;2023-03-23T03:14:07;99613.78;;;9.87;100.00
7376;BME280;3728;42.266;24.944;2023-03-23T03:17:05;99608.25;;;9.89;100.00
7376;BME280;3728;42.266;24.944;2023-03-23T03:19:42;99617.25;;;9.96;100.00
7376;BME280;3728;42.266;24.944;2023-03-23T03:22:12;99623.84;;;10.07;100.00
7376;BME280;3728;42.266;24.944;2023-03-23T03:24:41;99619.00;;;10.14;100.00
7376;BME280;3728;42.266;24.944;2023-03-23T03:27:13;99620.91;;;10.22;100.00
7376;BME280;3728;42.266;24.944;2023-03-23T03:29:48;99623.53;;;10.09;100.00
7376;BME280;3728;42.266;24.944;2023-03-23T03:32:21;99624.63;;;9.94;100.00
7376;BME280;3728;42.266;24.944;2023-03-23T03:34:50;99620.88;;;9.87;100.00
7376;BME280;3728;42.266;24.944;2023-03-23T03:37:18;99621.72;;;9.82;100.00
7376;BME280;3728;42.266;24.944;2023-03-23T03:39:47;99629.69;;;9.77;100.00
7376;BME280;3728;42.266;24.944;2023-03-23T03:42:14;99627.63;;;9.88;100.00
7376;BME280;3728;42.266;24.944;2023-03-23T03:44:41;99622.19;;;9.98;100.00
7376;BME280;3728;42.266;24.944;2023-03-23T03:47:07;99620.84;;;10.00;100.00
7376;BME280;3728;42.266;24.944;2023-03-23T03:49:34;99617.75;;;9.98;100.00
7376;BME280;3728;42.266;24.944;2023-03-23T03:52:01;99620.75;;;10.05;100.00
7376;BME280;3728;42.266;24.944;2023-03-23T03:54:41;99620.38;;;9.98;100.00
7376;BME280;3728;42.266;24.944;2023-03-23T03:57:08;99613.97;;;9.91;100.00
7376;BME280;3728;42.266;24.944;2023-03-23T03:59:52;99615.31;;;9.88;100.00
7376;BME280;3728;42.266;24.944;2023-03-23T04:02:21;99620.38;;;9.98;100.00
7376;BME280;3728;42.266;24.944;2023-03-23T04:04:51;99620.84;;;10.00;100.00
7376;BME280;3728;42.266;24.944;2023-03-23T04:07:18;99618.69;;;10.02;100.00
7376;BME280;3728;42.266;24.944;2023-03-23T04:09:48;99630.44;;;9.91;100.00
7376;BME280;3728;42.266;24.944;2023-03-23T04:12:18;99624.84;;;9.84;100.00
7376;BME280;3728;42.266;24.944;2023-03-23T04:14:58;99628.13;;;9.76;100.00
7376;BME280;3728;42.266;24.944;2023-03-23T04:17:29;99622.22;;;9.84;100.00
7376;BME280;3728;42.266;24.944;2023-03-23T04:19:56;99626.16;;;9.95;100.00
7376;BME280;3728;42.266;24.944;2023-03-23T04:22:24;99626.94;;;9.96;100.00
7376;BME280;3728;42.266;24.944;2023-03-23T04:25:00;99628.78;;;9.95;100.00
7376;BME280;3728;42.266;24.944;2023-03-23T04:27:33;99625.69;;;9.93;100.00
7376;BME280;3728;42.266;24.944;2023-03-23T04:30:04;99626.72;;;10.06;100.00
7376;BME280;3728;42.266;24.944;2023-03-23T04:32:45;99634.59;;;10.19;100.00
7376;BME280;3728;42.266;24.944;2023-03-23T04:35:20;99638.38;;;10.13;100.00
7376;BME280;3728;42.266;24.944;2023-03-23T04:38:04;99636.13;;;10.20;100.00
7376;BME280;3728;42.266;24.944;2023-03-23T04:40:31;99633.91;;;10.27;100.00
7376;BME280;3728;42.266;24.944;2023-03-23T04:43:10;99633.72;;;10.24;100.00
7376;BME280;3728;42.266;24.944;2023-03-23T04:45:57;99633.22;;;10.08;100.00
7376;BME280;3728;42.266;24.944;2023-03-23T04:48:31;99635.06;;;9.94;100.00
7376;BME280;3728;42.266;24.944;2023-03-23T04:51:08;99634.97;;;9.99;100.00
7376;BME280;3728;42.266;24.944;2023-03-23T04:53:36;99637.13;;;9.97;100.00
7376;BME280;3728;42.266;24.944;2023-03-23T04:56:02;99643.31;;;10.01;100.00
7376;BME280;3728;42.266;24.944;2023-03-23T04:58:35;99645.66;;;10.16;100.00
7376;BME280;3728;42.266;24.944;2023-03-23T05:01:20;99649.03;;;10.30;100.00
7376;BME280;3728;42.266;24.944;2023-03-23T05:04:01;99641.28;;;10.25;100.00
7376;BME280;3728;42.266;24.944;2023-03-23T05:06:28;99647.69;;;10.19;100.00
7376;BME280;3728;42.266;24.944;2023-03-23T05:09:03;99649.44;;;10.24;100.00
7376;BME280;3728;42.266;24.944;2023-03-23T05:11:30;99647.19;;;10.31;100.00
7376;BME280;3728;42.266;24.944;2023-03-23T05:13:57;99647.06;;;10.36;100.00
7376;BME280;3728;42.266;24.944;2023-03-23T05:16:23;99647.03;;;10.50;100.00
7376;BME280;3728;42.266;24.944;2023-03-23T05:18:50;99653.34;;;10.49;100.00
7376;BME280;3728;42.266;24.944;2023-03-23T05:21:19;99661.13;;;10.62;100.00
7376;BME280;3728;42.266;24.944;2023-03-23T05:23:50;99670.34;;;10.73;100.00
7376;BME280;3728;42.266;24.944;2023-03-23T05:26:23;99668.66;;;10.77;100.00
7376;BME280;3728;42.266;24.944;2023-03-23T05:28:54;99666.34;;;10.76;100.00
7376;BME280;3728;42.266;24.944;2023-03-23T05:31:36;99677.09;;;10.74;100.00
7376;BME280;3728;42.266;24.944;2023-03-23T05:34:03;99669.34;;;10.83;100.00
7376;BME280;3728;42.266;24.944;2023-03-23T05:36:53;99681.97;;;10.81;100.00
7376;BME280;3728;42.266;24.944;2023-03-23T05:39:28;99678.44;;;10.85;100.00
7376;BME280;3728;42.266;24.944;2023-03-23T05:42:14;99690.28;;;10.83;100.00
7376;BME280;3728;42.266;24.944;2023-03-23T05:44:49;99693.97;;;10.82;100.00
7376;BME280;3728;42.266;24.944;2023-03-23T05:47:16;99694.75;;;10.82;100.00
7376;BME280;3728;42.266;24.944;2023-03-23T05:49:50;99701.06;;;10.81;100.00
7376;BME280;3728;42.266;24.944;2023-03-23T05:52:19;99696.53;;;10.95;100.00
7376;BME280;3728;42.266;24.944;2023-03-23T05:54:46;99698.16;;;11.05;100.00
7376;BME280;3728;42.266;24.944;2023-03-23T05:57:15;99707.25;;;11.08;100.00
7376;BME280;3728;42.266;24.944;2023-03-23T05:59:49;99707.34;;;11.16;100.00
7376;BME280;3728;42.266;24.944;2023-03-23T06:02:20;99709.34;;;11.19;100.00
7376;BME280;3728;42.266;24.944;2023-03-23T06:04:50;99713.88;;;11.27;100.00
7376;BME280;3728;42.266;24.944;2023-03-23T06:07:27;99713.41;;;11.25;100.00
7376;BME280;3728;42.266;24.944;2023-03-23T06:10:00;99719.19;;;11.14;100.00
7376;BME280;3728;42.266;24.944;2023-03-23T06:12:39;99713.19;;;11.13;100.00
7376;BME280;3728;42.266;24.944;2023-03-23T06:15:09;99723.72;;;11.22;100.00
7376;BME280;3728;42.266;24.944;2023-03-23T06:18:09;99724.59;;;11.39;100.00
7376;BME280;3728;42.266;24.944;2023-03-23T06:20:45;99713.22;;;11.44;100.00
7376;BME280;3728;42.266;24.944;2023-03-23T06:23:36;99712.50;;;11.30;100.00
7376;BME280;3728;42.266;24.944;2023-03-23T06:26:05;99718.81;;;11.29;100.00
7376;BME280;3728;42.266;24.944;2023-03-23T06:28:35;99720.19;;;11.26;100.00
7376;BME280;3728;42.266;24.944;2023-03-23T06:31:03;99733.06;;;11.36;100.00
7376;BME280;3728;42.266;24.944;2023-03-23T06:33:34;99728.59;;;11.37;100.00
7376;BME280;3728;42.266;24.944;2023-03-23T06:36:27;99727.50;;;11.38;100.00
7376;BME280;3728;42.266;24.944;2023-03-23T06:39:10;99727.50;;;11.38;100.00
7376;BME280;3728;42.266;24.944;2023-03-23T06:41:50;99736.47;;;11.37;100.00
7376;BME280;3728;42.266;24.944;2023-03-23T06:44:17;99736.22;;;11.47;100.00
7376;BME280;3728;42.266;24.944;2023-03-23T06:46:44;99739.19;;;11.54;100.00
7376;BME280;3728;42.266;24.944;2023-03-23T06:49:21;99742.28;;;11.56;100.00
7376;BME280;3728;42.266;24.944;2023-03-23T06:51:54;99740.19;;;11.66;100.00
7376;BME280;3728;42.266;24.944;2023-03-23T06:54:23;99742.25;;;11.70;100.00
7376;BME280;3728;42.266;24.944;2023-03-23T06:56:50;99740.88;;;11.72;100.00
7376;BME280;3728;42.266;24.944;2023-03-23T06:59:17;99742.88;;;11.75;100.00
7376;BME280;3728;42.266;24.944;2023-03-23T07:01:43;99745.56;;;11.92;100.00
7376;BME280;3728;42.266;24.944;2023-03-23T07:04:10;99739.16;;;12.07;100.00
7376;BME280;3728;42.266;24.944;2023-03-23T07:07:04;99739.75;;;12.04;100.00
7376;BME280;3728;42.266;24.944;2023-03-23T07:09:51;99747.50;;;12.09;100.00
7376;BME280;3728;42.266;24.944;2023-03-23T07:12:22;99751.38;;;12.11;100.00
7376;BME280;3728;42.266;24.944;2023-03-23T07:14:50;99749.06;;;12.18;100.00
7376;BME280;3728;42.266;24.944;2023-03-23T07:17:20;99747.38;;;12.22;100.00
7376;BME280;3728;42.266;24.944;2023-03-23T07:20:00;99750.66;;;12.28;100.00
7376;BME280;3728;42.266;24.944;2023-03-23T07:22:28;99758.66;;;12.23;100.00
7376;BME280;3728;42.266;24.944;2023-03-23T07:25:04;99761.03;;;12.33;100.00
7376;BME280;3728;42.266;24.944;2023-03-23T07:27:41;99757.50;;;12.46;100.00
7376;BME280;3728;42.266;24.944;2023-03-23T07:30:11;99758.00;;;12.65;100.00
7376;BME280;3728;42.266;24.944;2023-03-23T07:32:39;99756.47;;;12.64;100.00
7376;BME280;3728;42.266;24.944;2023-03-23T07:35:08;99756.31;;;12.78;100.00
7376;BME280;3728;42.266;24.944;2023-03-23T07:38:07;99758.22;;;13.12;98.04
7376;BME280;3728;42.266;24.944;2023-03-23T07:40:35;99759.16;;;13.07;99.32
7376;BME280;3728;42.266;24.944;2023-03-23T07:43:07;99758.69;;;13.14;99.71
7376;BME280;3728;42.266;24.944;2023-03-23T07:45:54;99761.00;;;13.32;99.84
7376;BME280;3728;42.266;24.944;2023-03-23T07:48:24;99767.34;;;13.40;99.55
7376;BME280;3728;42.266;24.944;2023-03-23T07:50:51;99761.75;;;13.96;98.50
7376;BME280;3728;42.266;24.944;2023-03-23T07:53:18;99762.78;;;14.12;95.91
7376;BME280;3728;42.266;24.944;2023-03-23T07:55:54;99758.25;;;14.21;95.23
7376;BME280;3728;42.266;24.944;2023-03-23T07:58:46;99758.84;;;14.27;95.23
7376;BME280;3728;42.266;24.944;2023-03-23T08:01:13;99762.88;;;14.62;91.05
7376;BME280;3728;42.266;24.944;2023-03-23T08:03:43;99755.31;;;14.52;90.26
7376;BME280;3728;42.266;24.944;2023-03-23T08:06:35;99759.38;;;14.70;91.37
7376;BME280;3728;42.266;24.944;2023-03-23T08:09:34;99771.38;;;15.09;88.14
7376;BME280;3728;42.266;24.944;2023-03-23T08:12:23;99778.16;;;15.10;88.22
7376;BME280;3728;42.266;24.944;2023-03-23T08:15:16;99775.19;;;14.70;87.27
7376;BME280;3728;42.266;24.944;2023-03-23T08:17:50;99791.03;;;14.91;90.16
7376;BME280;3728;42.266;24.944;2023-03-23T08:20:37;99781.56;;;15.31;87.53
7376;BME280;3728;42.266;24.944;2023-03-23T08:23:27;99775.47;;;15.19;84.65
7376;BME280;3728;42.266;24.944;2023-03-23T08:26:12;99778.81;;;15.28;86.29
7376;BME280;3728;42.266;24.944;2023-03-23T08:28:58;99779.06;;;15.35;88.75
7376;BME280;3728;42.266;24.944;2023-03-23T08:32:04;99785.91;;;15.68;88.07
7376;BME280;3728;42.266;24.944;2023-03-23T08:34:51;99781.56;;;16.21;83.74
7376;BME280;3728;42.266;24.944;2023-03-23T08:37:37;99781.22;;;16.71;78.92
7376;BME280;3728;42.266;24.944;2023-03-23T08:40:26;99786.06;;;16.32;80.70
7376;BME280;3728;42.266;24.944;2023-03-23T08:43:11;99777.03;;;16.21;77.08
7376;BME280;3728;42.266;24.944;2023-03-23T08:45:56;99777.78;;;15.86;78.13
7376;BME280;3728;42.266;24.944;2023-03-23T08:48:40;99779.78;;;16.01;79.44
7376;BME280;3728;42.266;24.944;2023-03-23T08:51:33;99773.19;;;16.19;82.20
7376;BME280;3728;42.266;24.944;2023-03-23T08:54:28;99781.56;;;16.33;81.81
7376;BME280;3728;42.266;24.944;2023-03-23T08:57:19;99777.06;;;16.58;75.91
7376;BME280;3728;42.266;24.944;2023-03-23T09:00:24;99777.06;;;16.70;79.59
7376;BME280;3728;42.266;24.944;2023-03-23T09:03:12;99775.69;;;17.16;74.72
7376;BME280;3728;42.266;24.944;2023-03-23T09:06:03;99779.91;;;17.17;75.52
7376;BME280;3728;42.266;24.944;2023-03-23T09:08:36;99778.44;;;17.47;76.44
7376;BME280;3728;42.266;24.944;2023-03-23T09:11:05;99776.97;;;17.93;71.20
7376;BME280;3728;42.266;24.944;2023-03-23T09:13:37;99782.03;;;17.82;69.53
7376;BME280;3728;42.266;24.944;2023-03-23T09:16:06;99777.06;;;18.12;66.08
7376;BME280;3728;42.266;24.944;2023-03-23T09:18:34;99770.72;;;18.16;70.17
7376;BME280;3728;42.266;24.944;2023-03-23T09:21:02;99775.00;;;18.21;67.34
7376;BME280;3728;42.266;24.944;2023-03-23T09:23:30;99776.38;;;18.15;66.67
7376;BME280;3728;42.266;24.944;2023-03-23T09:25:57;99774.19;;;18.01;66.35
7376;BME280;3728;42.266;24.944;2023-03-23T09:28:26;99776.75;;;18.13;61.37
7376;BME280;3728;42.266;24.944;2023-03-23T09:30:55;99777.75;;;17.93;65.03
7376;BME280;3728;42.266;24.944;2023-03-23T09:33:24;99777.59;;;18.17;60.91
7376;BME280;3728;42.266;24.944;2023-03-23T09:35:53;99773.47;;;17.89;63.70
7376;BME280;3728;42.266;24.944;2023-03-23T09:38:21;99765.03;;;17.99;60.87
7376;BME280;3728;42.266;24.944;2023-03-23T09:44:22;99763.16;;;18.84;54.06
7376;BME280;3728;42.266;24.944;2023-03-23T09:47:20;99756.88;;;18.73;53.13
7376;BME280;3728;42.266;24.944;2023-03-23T09:50:15;99758.84;;;19.15;49.25
7376;BME280;3728;42.266;24.944;2023-03-23T09:52:50;99755.28;;;18.69;52.80
7376;BME280;3728;42.266;24.944;2023-03-23T09:55:19;99760.81;;;18.79;53.40
7376;BME280;3728;42.266;24.944;2023-03-23T09:58:08;99754.97;;;18.55;53.02
7376;BME280;3728;42.266;24.944;2023-03-23T10:01:17;99750.75;;;18.88;52.03
7376;BME280;3728;42.266;24.944;2023-03-23T10:04:15;99750.59;;;18.47;54.33
7376;BME280;3728;42.266;24.944;2023-03-23T10:06:59;99755.47;;;18.44;50.71
7376;BME280;3728;42.266;24.944;2023-03-23T10:09:37;99749.53;;;18.32;53.74
7376;BME280;3728;42.266;24.944;2023-03-23T10:15:04;99746.88;;;18.67;53.96
7376;BME280;3728;42.266;24.944;2023-03-23T10:20:18;99745.94;;;18.24;55.47
7376;BME280;3728;42.266;24.944;2023-03-23T10:23:09;99737.50;;;18.03;56.67
7376;BME280;3728;42.266;24.944;2023-03-23T10:25:52;99742.19;;;18.10;55.75
7376;BME280;3728;42.266;24.944;2023-03-23T10:28:39;99740.47;;;18.02;55.39
7376;BME280;3728;42.266;24.944;2023-03-23T10:31:27;99740.13;;;17.88;55.96
7376;BME280;3728;42.266;24.944;2023-03-23T10:34:03;99735.59;;;17.88;56.15
7376;BME280;3728;42.266;24.944;2023-03-23T10:36:48;99743.38;;;18.12;55.68
7376;BME280;3728;42.266;24.944;2023-03-23T10:39:23;99741.47;;;18.28;55.37
7376;BME280;3728;42.266;24.944;2023-03-23T10:41:52;99742.19;;;18.10;56.34
7376;BME280;3728;42.266;24.944;2023-03-23T10:44:20;99738.97;;;18.35;57.19
7376;BME280;3728;42.266;24.944;2023-03-23T10:49:37;99737.56;;;18.22;55.37
7376;BME280;3728;42.266;24.944;2023-03-23T10:52:34;99744.47;;;18.11;55.34
7376;BME280;3728;42.266;24.944;2023-03-23T10:55:23;99729.41;;;18.31;55.24
7376;BME280;3728;42.266;24.944;2023-03-23T10:58:02;99735.94;;;18.18;55.11
7376;BME280;3728;42.266;24.944;2023-03-23T11:00:31;99735.91;;;18.33;55.74
7376;BME280;3728;42.266;24.944;2023-03-23T11:03:04;99730.81;;;18.60;55.23
7376;BME280;3728;42.266;24.944;2023-03-23T11:05:36;99725.09;;;18.58;56.36
7376;BME280;3728;42.266;24.944;2023-03-23T11:08:19;99727.19;;;18.87;53.51
7376;BME280;3728;42.266;24.944;2023-03-23T11:11:10;99728.84;;;18.57;55.29
7376;BME280;3728;42.266;24.944;2023-03-23T11:13:46;99721.56;;;18.69;56.76
7376;BME280;3728;42.266;24.944;2023-03-23T11:16:29;99728.25;;;18.82;55.13
7376;BME280;3728;42.266;24.944;2023-03-23T11:18:59;99724.88;;;18.66;56.30
7376;BME280;3728;42.266;24.944;2023-03-23T11:21:27;99717.97;;;18.62;54.51
7376;BME280;3728;42.266;24.944;2023-03-23T11:23:59;99712.47;;;18.89;52.45
7376;BME280;3728;42.266;24.944;2023-03-23T11:26:31;99717.44;;;18.91;52.64
7376;BME280;3728;42.266;24.944;2023-03-23T11:29:09;99709.19;;;18.96;53.16
7376;BME280;3728;42.266;24.944;2023-03-23T11:32:14;99714.31;;;19.27;51.62
7376;BME280;3728;42.266;24.944;2023-03-23T11:34:43;99717.09;;;19.53;51.67
7376;BME280;3728;42.266;24.944;2023-03-23T11:37:45;99715.03;;;19.66;49.76
7376;BME280;3728;42.266;24.944;2023-03-23T11:40:24;99709.38;;;19.94;49.48
7376;BME280;3728;42.266;24.944;2023-03-23T11:45:45;99707.44;;;20.17;47.68
7376;BME280;3728;42.266;24.944;2023-03-23T11:51:41;99702.69;;;19.54;49.87
7376;BME280;3728;42.266;24.944;2023-03-23T11:57:13;99695.47;;;19.55;50.75
7376;BME280;3728;42.266;24.944;2023-03-23T11:59:41;99693.19;;;19.53;50.45
7376;BME280;3728;42.266;24.944;2023-03-23T12:05:30;99694.00;;;19.16;51.24
7376;BME280;3728;42.266;24.944;2023-03-23T12:17:15;99686.09;;;19.38;52.77
7376;BME280;3728;42.266;24.944;2023-03-23T12:25:49;99686.09;;;19.38;51.80
7376;BME280;3728;42.266;24.944;2023-03-23T12:37:04;99675.03;;;19.82;49.83
7376;BME280;3728;42.266;24.944;2023-03-23T12:40:09;99679.53;;;20.04;50.52
7376;BME280;3728;42.266;24.944;2023-03-23T12:43:27;99683.06;;;19.85;48.93
7376;BME280;3728;42.266;24.944;2023-03-23T12:49:43;99673.25;;;19.89;49.83
7376;BME280;3728;42.266;24.944;2023-03-23T12:55:15;99674.53;;;20.25;49.63
7376;BME280;3728;42.266;24.944;2023-03-23T12:58:00;99670.31;;;19.98;49.48
7376;BME280;3728;42.266;24.944;2023-03-23T13:00:57;99673.94;;;19.86;48.06
7376;BME280;3728;42.266;24.944;2023-03-23T13:09:10;99669.41;;;18.58;52.79
7376;BME280;3728;42.266;24.944;2023-03-23T13:11:54;99668.19;;;18.55;52.58
7376;BME280;3728;42.266;24.944;2023-03-23T13:17:43;99662.81;;;18.71;52.46
7376;BME280;3728;42.266;24.944;2023-03-23T13:23:28;99665.34;;;19.70;49.82
7376;BME280;3728;42.266;24.944;2023-03-23T13:26:16;99668.38;;;19.68;49.75
7376;BME280;3728;42.266;24.944;2023-03-23T13:28:59;99659.38;;;19.76;50.26
7376;BME280;3728;42.266;24.944;2023-03-23T13:31:31;99670.00;;;19.76;49.94
7376;BME280;3728;42.266;24.944;2023-03-23T13:34:05;99657.47;;;19.32;51.30
7376;BME280;3728;42.266;24.944;2023-03-23T13:37:05;99662.72;;;19.05;51.77
7376;BME280;3728;42.266;24.944;2023-03-23T13:39:58;99661.97;;;19.28;54.39
7376;BME280;3728;42.266;24.944;2023-03-23T13:43:10;99656.06;;;19.15;53.86
7376;BME280;3728;42.266;24.944;2023-03-23T13:45:43;99652.97;;;18.90;54.19
7376;BME280;3728;42.266;24.944;2023-03-23T13:50:59;99657.22;;;18.95;52.72
7376;BME280;3728;42.266;24.944;2023-03-23T13:53:31;99656.81;;;18.74;53.21
7376;BME280;3728;42.266;24.944;2023-03-23T13:59:05;99653.94;;;19.01;54.90
7376;BME280;3728;42.266;24.944;2023-03-23T14:01:41;99663.03;;;18.81;55.66
7376;BME280;3728;42.266;24.944;2023-03-23T14:04:18;99657.69;;;18.43;55.16
7376;BME280;3728;42.266;24.944;2023-03-23T14:06:48;99654.69;;;18.44;56.29
7376;BME280;3728;42.266;24.944;2023-03-23T14:09:27;99659.16;;;18.40;58.06
7376;BME280;3728;42.266;24.944;2023-03-23T14:12:05;99652.63;;;18.54;56.71
7376;BME280;3728;42.266;24.944;2023-03-23T14:14:46;99660.97;;;18.94;55.55
7376;BME280;3728;42.266;24.944;2023-03-23T14:17:28;99661.31;;;18.35;60.05
7376;BME280;3728;42.266;24.944;2023-03-23T14:19:58;99662.00;;;17.97;61.60
7376;BME280;3728;42.266;24.944;2023-03-23T14:22:42;99655.41;;;18.07;61.86
7376;BME280;3728;42.266;24.944;2023-03-23T14:25:18;99653.22;;;17.93;61.71
7376;BME280;3728;42.266;24.944;2023-03-23T14:27:51;99654.25;;;17.89;61.00
7376;BME280;3728;42.266;24.944;2023-03-23T14:30:21;99658.97;;;17.80;62.76
7376;BME280;3728;42.266;24.944;2023-03-23T14:32:55;99662.28;;;17.92;61.26
7376;BME280;3728;42.266;24.944;2023-03-23T14:35:32;99665.94;;;17.88;63.03
7376;BME280;3728;42.266;24.944;2023-03-23T14:38:01;99661.41;;;17.88;62.99
7376;BME280;3728;42.266;24.944;2023-03-23T14:40:30;99662.38;;;17.80;64.25
7376;BME280;3728;42.266;24.944;2023-03-23T14:42:57;99657.50;;;17.66;63.65
7376;BME280;3728;42.266;24.944;2023-03-23T14:45:26;99656.56;;;17.74;63.60
7376;BME280;3728;42.266;24.944;2023-03-23T14:48:02;99647.94;;;17.62;66.02
7376;BME280;3728;42.266;24.944;2023-03-23T14:50:41;99640.53;;;17.52;66.91
7376;BME280;3728;42.266;24.944;2023-03-23T14:53:24;99641.91;;;17.61;65.69
7376;BME280;3728;42.266;24.944;2023-03-23T14:56:09;99639.31;;;17.65;65.43
7376;BME280;3728;42.266;24.944;2023-03-23T14:58:38;99634.47;;;17.51;66.65
7376;BME280;3728;42.266;24.944;2023-03-23T15:01:13;99632.91;;;17.66;66.89
7376;BME280;3728;42.266;24.944;2023-03-23T15:04:03;99636.88;;;17.91;66.10
7376;BME280;3728;42.266;24.944;2023-03-23T15:06:38;99634.13;;;18.03;63.54
7376;BME280;3728;42.266;24.944;2023-03-23T15:09:16;99639.66;;;19.09;59.13
7376;BME280;3728;42.266;24.944;2023-03-23T15:11:52;99640.09;;;20.35;54.57
7376;BME280;3728;42.266;24.944;2023-03-23T15:14:53;99642.19;;;21.23;52.62
7376;BME280;3728;42.266;24.944;2023-03-23T15:17:28;99653.88;;;22.09;49.93
7376;BME280;3728;42.266;24.944;2023-03-23T15:20:19;99658.38;;;22.67;47.36
7376;BME280;3728;42.266;24.944;2023-03-23T15:22:47;99656.50;;;22.78;46.47
7376;BME280;3728;42.266;24.944;2023-03-23T15:25:21;99666.78;;;22.72;45.94
7376;BME280;3728;42.266;24.944;2023-03-23T15:27:51;99652.66;;;22.65;45.37